createdAt,value
2023-05-18T00:01:12.103Z,18.24
2023-05-18T00:06:11.475Z,18.24
2023-05-18T00:11:11.305Z,18.20
2023-05-18T00:16:11.046Z,18.20
2023-05-18T00:21:10.821Z,18.18
2023-05-18T00:26:10.582Z,18.17
2023-05-18T00:31:10.430Z,18.17
2023-05-18T00:36:10.268Z,18.18
2023-05-18T00:41:09.992Z,18.17
2023-05-18T00:46:09.736Z,18.17
2023-05-18T00:51:09.491Z,18.13
2023-05-18T00:56:09.264Z,18.12
2023-05-18T01:01:09.083Z,18.13
2023-05-18T01:06:08.813Z,18.11
2023-05-18T01:11:08.883Z,18.12
2023-05-18T01:16:08.508Z,18.09
2023-05-18T01:21:08.230Z,18.06
2023-05-18T01:26:07.944Z,18.05
2023-05-18T01:31:07.741Z,18.03
2023-05-18T01:36:07.622Z,18.03
2023-05-18T01:41:07.409Z,18.03
2023-05-18T01:46:07.225Z,18.02
2023-05-18T01:51:07.006Z,18.01
2023-05-18T01:56:06.738Z,18.02
2023-05-18T02:01:07.555Z,17.99
2023-05-18T02:06:06.238Z,17.97
2023-05-18T02:11:06.038Z,17.99
2023-05-18T02:16:05.859Z,17.96
2023-05-18T02:21:05.612Z,17.96
2023-05-18T02:26:05.624Z,17.93
2023-05-18T02:31:05.254Z,17.94
2023-05-18T02:36:05.046Z,17.93
2023-05-18T02:41:05.017Z,17.93
2023-05-18T02:46:04.726Z,17.91
2023-05-18T02:51:04.474Z,17.90
2023-05-18T02:56:04.282Z,17.86
2023-05-18T03:01:04.061Z,17.88
2023-05-18T03:06:03.944Z,17.87
2023-05-18T03:11:03.617Z,17.86
2023-05-18T03:16:03.607Z,17.86
2023-05-18T03:21:03.368Z,17.84
2023-05-18T03:26:02.961Z,17.83
2023-05-18T03:31:02.964Z,17.78
2023-05-18T03:36:02.753Z,17.78
2023-05-18T03:41:02.380Z,17.78
2023-05-18T03:46:02.328Z,17.75
2023-05-18T03:51:01.962Z,17.76
2023-05-18T03:56:01.973Z,17.76
2023-05-18T04:01:01.629Z,17.79
2023-05-18T04:06:01.375Z,17.79
2023-05-18T04:11:01.268Z,17.79
2023-05-18T04:16:01.189Z,17.78
2023-05-18T04:21:00.798Z,17.75
2023-05-18T04:26:00.650Z,17.75
2023-05-18T04:31:00.479Z,17.78
2023-05-18T04:36:00.314Z,17.78
2023-05-18T04:40:59.999Z,17.81
2023-05-18T04:45:59.896Z,17.78
2023-05-18T04:50:59.606Z,17.75
2023-05-18T04:55:59.428Z,17.76
2023-05-18T05:00:59.302Z,17.75
2023-05-18T05:05:59.096Z,17.76
2023-05-18T05:10:58.940Z,17.76
2023-05-18T05:15:58.632Z,17.83
2023-05-18T05:20:58.412Z,17.79
2023-05-18T05:25:58.182Z,17.81
2023-05-18T05:30:57.988Z,17.81
2023-05-18T05:35:57.911Z,17.79
2023-05-18T05:40:58.737Z,17.83
2023-05-18T05:45:57.413Z,17.87
2023-05-18T05:50:57.280Z,17.86
2023-05-18T05:55:57.103Z,17.86
2023-05-18T06:00:56.803Z,17.91
2023-05-18T06:05:56.599Z,17.90
2023-05-18T06:10:56.447Z,17.93
2023-05-18T06:16:02.650Z,17.93
2023-05-18T06:20:56.175Z,17.96
2023-05-18T06:25:55.987Z,17.99
2023-05-18T06:30:59.009Z,18.01
2023-05-18T06:35:55.667Z,17.96
2023-05-18T06:40:55.486Z,17.97
2023-05-18T06:46:18.377Z,17.94
2023-05-18T06:50:55.115Z,17.96
2023-05-18T06:55:55.007Z,17.96
2023-05-18T07:00:54.658Z,17.97
2023-05-18T07:05:54.426Z,18.02
2023-05-18T07:10:54.259Z,18.01
2023-05-18T07:15:54.166Z,17.99
2023-05-18T07:20:53.923Z,17.97
2023-05-18T07:25:53.863Z,18.02
2023-05-18T07:30:53.728Z,18.02
2023-05-18T07:35:53.461Z,18.03
2023-05-18T07:40:53.306Z,18.05
2023-05-18T07:45:53.111Z,18.05
2023-05-18T07:50:52.782Z,18.09
2023-05-18T07:55:52.754Z,18.17
2023-05-18T08:00:52.626Z,18.20
2023-05-18T08:05:53.500Z,18.23
2023-05-18T08:10:52.080Z,18.28
2023-05-18T08:16:03.018Z,18.31
2023-05-18T08:20:51.808Z,18.31
2023-05-18T08:25:51.697Z,18.33
2023-05-18T08:30:51.316Z,18.34
2023-05-18T08:35:51.209Z,18.39
2023-05-18T08:40:50.897Z,18.43
2023-05-18T08:45:50.662Z,18.49
2023-05-18T08:50:50.483Z,18.51
2023-05-18T08:55:50.302Z,18.52
2023-05-18T09:00:50.093Z,18.56
2023-05-18T09:05:50.074Z,18.60
2023-05-18T09:10:49.694Z,18.63
2023-05-18T09:15:49.667Z,18.66
2023-05-18T09:20:49.289Z,18.68
2023-05-18T09:25:49.086Z,18.46
2023-05-18T09:30:48.938Z,18.56
2023-05-18T09:35:48.758Z,18.38
2023-05-18T09:40:48.527Z,18.52
2023-05-18T09:45:48.334Z,18.58
2023-05-18T09:50:47.989Z,18.74
2023-05-18T09:55:48.793Z,18.54
2023-05-18T10:00:47.642Z,18.54
2023-05-18T10:05:47.521Z,18.51
2023-05-18T10:10:47.155Z,18.60
2023-05-18T10:15:47.013Z,18.70
2023-05-18T10:20:46.810Z,18.91
2023-05-18T10:25:46.676Z,19.38
2023-05-18T10:30:46.597Z,19.79
2023-05-18T10:35:46.260Z,19.60
2023-05-18T10:40:47.536Z,19.52
2023-05-18T10:45:49.161Z,19.84
2023-05-18T10:50:45.717Z,20.29
2023-05-18T10:55:45.547Z,21.00
2023-05-18T11:00:45.206Z,20.79
2023-05-18T11:05:45.132Z,21.43
2023-05-18T11:10:44.811Z,21.98
2023-05-18T11:15:44.597Z,22.34
2023-05-18T11:20:45.056Z,22.41
2023-05-18T11:25:47.318Z,21.30
2023-05-18T11:30:44.120Z,20.80
2023-05-18T11:35:44.323Z,22.70
2023-05-18T11:40:43.974Z,23.59
2023-05-18T11:45:43.501Z,31.07
2023-05-18T11:50:43.316Z,30.56
2023-05-18T11:55:43.033Z,33.64
2023-05-18T12:00:42.984Z,32.63
2023-05-18T12:05:42.727Z,24.29
2023-05-18T12:10:42.654Z,26.33
2023-05-18T12:15:42.252Z,29.84
2023-05-18T12:20:42.017Z,28.35
2023-05-18T12:25:41.682Z,25.37
2023-05-18T12:30:41.735Z,25.30
2023-05-18T12:35:41.272Z,24.91
2023-05-18T12:40:41.234Z,24.38
2023-05-18T12:45:40.890Z,24.22
2023-05-18T12:50:40.694Z,23.45
2023-05-18T12:55:41.057Z,23.59
2023-05-18T13:00:40.445Z,23.73
2023-05-18T13:05:39.988Z,23.54
2023-05-18T13:10:39.969Z,23.85
2023-05-18T13:15:39.510Z,23.54
2023-05-18T13:20:39.424Z,23.71
2023-05-18T13:25:39.246Z,24.00
2023-05-18T13:30:39.123Z,24.01
2023-05-18T13:35:41.506Z,23.71
2023-05-18T13:40:38.724Z,23.91
2023-05-18T13:45:38.713Z,23.89
2023-05-18T13:50:38.047Z,23.54
2023-05-18T13:55:37.709Z,23.45
2023-05-18T14:00:37.946Z,23.25
2023-05-18T14:05:37.409Z,22.93
2023-05-18T14:10:37.115Z,22.62
2023-05-18T14:15:36.790Z,22.33
2023-05-18T14:20:37.981Z,22.23
2023-05-18T14:25:36.457Z,22.07
2023-05-18T14:30:37.251Z,21.94
2023-05-18T14:35:36.060Z,21.90
2023-05-18T14:40:36.098Z,21.90
2023-05-18T14:45:35.479Z,21.85
2023-05-18T14:50:38.354Z,21.85
2023-05-18T14:55:35.267Z,21.67
2023-05-18T15:00:35.430Z,21.45
2023-05-18T15:05:34.698Z,21.35
2023-05-18T15:10:36.838Z,21.23
2023-05-18T15:15:34.529Z,21.19
2023-05-18T15:20:34.048Z,21.13
2023-05-18T15:25:33.628Z,20.98
2023-05-18T15:30:34.492Z,20.83
2023-05-18T15:35:33.552Z,20.73
2023-05-18T15:40:33.517Z,20.70
2023-05-18T15:45:33.200Z,20.68
2023-05-18T15:50:32.915Z,20.65
2023-05-18T15:55:32.611Z,20.63
2023-05-18T16:00:33.019Z,20.56
2023-05-18T16:05:32.395Z,20.55
2023-05-18T16:10:32.184Z,20.48
2023-05-18T16:15:31.620Z,20.46
2023-05-18T16:20:32.650Z,20.42
2023-05-18T16:25:31.182Z,20.39
2023-05-18T16:30:32.398Z,20.36
2023-05-18T16:35:30.614Z,20.34
2023-05-18T16:40:30.699Z,20.29
2023-05-18T16:45:30.156Z,20.25
2023-05-18T16:50:30.443Z,20.22
2023-05-18T16:55:29.929Z,20.18
2023-05-18T17:00:29.726Z,20.15
2023-05-18T17:05:29.306Z,20.14
2023-05-18T17:10:30.557Z,20.12
2023-05-18T17:15:29.148Z,20.09
2023-05-18T17:20:28.803Z,20.07
2023-05-18T17:25:31.993Z,20.02
2023-05-18T17:30:28.375Z,19.97
2023-05-18T17:35:28.366Z,19.97
2023-05-18T17:40:27.971Z,19.93
2023-05-18T17:45:27.471Z,19.93
2023-05-18T17:50:27.401Z,19.90
2023-05-18T17:55:27.483Z,19.87
2023-05-18T18:00:27.059Z,19.86
2023-05-18T18:05:27.056Z,19.81
2023-05-18T18:10:26.476Z,19.78
2023-05-18T18:15:26.476Z,19.75
2023-05-18T18:20:25.977Z,19.72
2023-05-18T18:25:26.179Z,19.72
2023-05-18T18:30:30.186Z,19.68
2023-05-18T18:35:25.603Z,19.64
2023-05-18T18:40:25.182Z,19.63
2023-05-18T18:45:25.011Z,19.60
2023-05-18T18:50:24.779Z,19.60
2023-05-18T18:55:24.606Z,19.54
2023-05-18T19:00:24.320Z,19.50
2023-05-18T19:05:24.414Z,19.47
2023-05-18T19:10:23.896Z,19.44
2023-05-18T19:15:23.748Z,19.42
2023-05-18T19:20:24.444Z,19.45
2023-05-18T19:25:23.158Z,19.42
2023-05-18T19:30:23.106Z,19.38
2023-05-18T19:35:22.818Z,19.32
2023-05-18T19:40:22.776Z,19.32
2023-05-18T19:45:22.396Z,19.34
2023-05-18T19:50:22.204Z,19.27
2023-05-18T19:55:22.062Z,19.24
2023-05-18T20:00:21.781Z,19.24
2023-05-18T20:05:21.480Z,19.22
2023-05-18T20:10:21.335Z,19.20
2023-05-18T20:15:21.170Z,19.17
2023-05-18T20:20:20.803Z,19.17
2023-05-18T20:25:20.718Z,19.13
2023-05-18T20:30:20.533Z,19.13
2023-05-18T20:35:20.375Z,19.09
2023-05-18T20:40:19.996Z,19.07
2023-05-18T20:45:19.945Z,19.05
2023-05-18T20:50:19.803Z,19.01
2023-05-18T20:55:19.437Z,19.00
2023-05-18T21:00:19.334Z,18.98
2023-05-18T21:05:19.169Z,18.97
2023-05-18T21:10:18.893Z,18.96
2023-05-18T21:15:18.753Z,18.94
2023-05-18T21:20:19.485Z,18.91
2023-05-18T21:25:18.302Z,18.93
2023-05-18T21:30:19.048Z,18.89
2023-05-18T21:35:17.868Z,18.89
2023-05-18T21:40:17.718Z,18.88
2023-05-18T21:45:17.296Z,18.85
2023-05-18T21:50:17.082Z,18.82
2023-05-18T21:55:16.864Z,18.81
2023-05-18T22:00:16.808Z,18.81
2023-05-18T22:05:17.542Z,18.78
2023-05-18T22:10:16.375Z,18.76
2023-05-18T22:15:16.211Z,18.75
2023-05-18T22:20:15.944Z,18.70
2023-05-18T22:25:15.758Z,18.67
2023-05-18T22:30:15.324Z,18.67
2023-05-18T22:35:15.207Z,18.64
2023-05-18T22:40:14.969Z,18.63
2023-05-18T22:45:14.758Z,18.61
2023-05-18T22:50:14.412Z,18.57
2023-05-18T22:55:14.218Z,18.56
2023-05-18T23:00:14.034Z,18.52
2023-05-18T23:05:13.943Z,18.52
2023-05-18T23:10:13.616Z,18.51
2023-05-18T23:15:13.405Z,18.48
2023-05-18T23:20:13.232Z,18.51
2023-05-18T23:25:13.017Z,18.48
2023-05-18T23:30:12.836Z,18.45
2023-05-18T23:35:13.965Z,18.43
2023-05-18T23:40:12.609Z,18.39
2023-05-18T23:45:12.331Z,18.33
2023-05-18T23:50:13.068Z,18.30
2023-05-18T23:55:12.001Z,18.30
